createdAt,value
2022-09-12T00:01:31.724Z,13.65
2022-09-12T00:04:04.606Z,13.64
2022-09-12T00:06:34.906Z,13.66
2022-09-12T00:09:07.735Z,13.70
2022-09-12T00:11:38.015Z,13.74
2022-09-12T00:14:07.746Z,13.76
2022-09-12T00:16:37.489Z,13.72
2022-09-12T00:19:07.226Z,13.68
2022-09-12T00:21:37.397Z,13.59
2022-09-12T00:24:07.878Z,13.53
2022-09-12T00:26:36.856Z,13.50
2022-09-12T00:29:05.347Z,13.48
2022-09-12T00:31:33.792Z,13.49
2022-09-12T00:34:02.517Z,13.48
2022-09-12T00:36:31.409Z,13.47
2022-09-12T00:39:00.405Z,13.43
2022-09-12T00:41:32.159Z,13.35
2022-09-12T00:44:02.410Z,13.30
2022-09-12T00:46:40.217Z,13.29
2022-09-12T00:49:15.260Z,13.29
2022-09-12T00:51:47.776Z,13.21
2022-09-12T00:54:23.326Z,13.10
2022-09-12T00:56:56.891Z,13.03
2022-09-12T00:59:30.543Z,13.02
2022-09-12T01:01:59.176Z,13.07
2022-09-12T01:04:29.079Z,13.11
2022-09-12T01:06:59.519Z,13.13
2022-09-12T01:09:27.943Z,13.18
2022-09-12T01:11:58.432Z,13.22
2022-09-12T01:14:26.926Z,13.24
2022-09-12T01:16:55.389Z,13.25
2022-09-12T01:19:51.329Z,13.25
2022-09-12T01:22:37.854Z,13.28
2022-09-12T01:25:20.621Z,13.31
2022-09-12T01:28:08.021Z,13.34
2022-09-12T01:30:49.241Z,13.38
2022-09-12T01:33:37.532Z,13.36
2022-09-12T01:36:24.239Z,13.33
2022-09-12T01:39:02.311Z,13.30
2022-09-12T01:41:42.468Z,13.31
2022-09-12T01:44:20.132Z,13.31
2022-09-12T01:46:56.499Z,13.33
2022-09-12T01:49:28.317Z,13.37
2022-09-12T01:52:02.423Z,13.36
2022-09-12T01:54:37.530Z,13.37
2022-09-12T01:57:13.423Z,13.37
2022-09-12T01:59:46.449Z,13.37
2022-09-12T02:02:20.973Z,13.40
2022-09-12T02:04:55.875Z,13.39
2022-09-12T02:07:30.437Z,13.39
2022-09-12T02:10:07.336Z,13.40
2022-09-12T02:12:42.145Z,13.41
2022-09-12T02:15:13.673Z,13.42
2022-09-12T02:17:45.354Z,13.43
2022-09-12T02:20:37.429Z,13.46
2022-09-12T02:23:13.209Z,13.49
2022-09-12T02:25:46.702Z,13.49
2022-09-12T02:28:18.879Z,13.50
2022-09-12T02:30:55.223Z,13.51
2022-09-12T02:33:32.073Z,13.51
2022-09-12T02:36:11.211Z,13.51
2022-09-12T02:38:46.407Z,13.50
2022-09-12T02:41:18.683Z,13.50
2022-09-12T02:43:47.902Z,13.50
2022-09-12T02:46:20.391Z,13.50
2022-09-12T02:48:50.245Z,13.52
2022-09-12T02:51:23.390Z,13.53
2022-09-12T02:53:52.446Z,13.52
2022-09-12T02:56:27.970Z,13.51
2022-09-12T02:59:00.188Z,13.50
2022-09-12T03:01:39.315Z,13.52
2022-09-12T03:04:33.190Z,13.52
2022-09-12T03:07:13.436Z,13.53
2022-09-12T03:09:49.113Z,13.52
2022-09-12T03:12:34.111Z,13.50
2022-09-12T03:15:14.884Z,13.49
2022-09-12T03:18:07.255Z,13.44
2022-09-12T03:20:46.157Z,13.45
2022-09-12T03:23:23.117Z,13.45
2022-09-12T03:25:58.254Z,13.45
2022-09-12T03:28:27.581Z,13.41
2022-09-12T03:30:56.536Z,13.33
2022-09-12T03:33:26.930Z,13.28
2022-09-12T03:35:57.294Z,13.09
2022-09-12T03:38:25.672Z,12.88
2022-09-12T03:40:55.003Z,12.78
2022-09-12T03:43:23.443Z,12.72
2022-09-12T03:45:53.434Z,12.60
2022-09-12T03:48:22.194Z,12.51
2022-09-12T03:50:50.539Z,12.44
2022-09-12T03:53:20.265Z,12.38
2022-09-12T03:55:48.576Z,12.31
2022-09-12T03:58:16.903Z,12.27
2022-09-12T04:00:45.516Z,12.19
2022-09-12T04:03:13.911Z,12.15
2022-09-12T04:05:42.265Z,12.12
2022-09-12T04:08:10.559Z,12.13
2022-09-12T04:10:40.286Z,12.18
2022-09-12T04:13:08.779Z,12.28
2022-09-12T04:15:37.145Z,12.37
2022-09-12T04:18:06.227Z,12.43
2022-09-12T04:20:34.680Z,12.47
2022-09-12T04:23:03.079Z,12.52
2022-09-12T04:25:31.430Z,12.49
2022-09-12T04:28:01.115Z,12.48
2022-09-12T04:30:29.526Z,12.47
2022-09-12T04:32:57.884Z,12.51
2022-09-12T04:35:26.882Z,12.56
2022-09-12T04:37:55.257Z,12.60
2022-09-12T04:40:23.672Z,12.52
2022-09-12T04:42:51.994Z,12.42
2022-09-12T04:45:21.726Z,12.32
2022-09-12T04:47:50.311Z,12.25
2022-09-12T04:50:19.380Z,12.20
2022-09-12T04:52:51.316Z,12.21
2022-09-12T04:55:19.811Z,12.32
2022-09-12T04:57:48.147Z,12.40
2022-09-12T05:00:16.909Z,12.47
2022-09-12T05:02:46.619Z,12.52
2022-09-12T05:05:15.004Z,12.57
2022-09-12T05:07:44.623Z,12.61
2022-09-12T05:10:14.146Z,12.65
2022-09-12T05:12:42.920Z,12.66
2022-09-12T05:15:11.994Z,12.70
2022-09-12T05:17:40.328Z,12.73
2022-09-12T05:20:12.782Z,12.74
2022-09-12T05:22:41.193Z,12.75
2022-09-12T05:25:10.694Z,12.80
2022-09-12T05:27:39.139Z,12.82
2022-09-12T05:30:08.856Z,12.85
2022-09-12T05:32:37.315Z,12.89
2022-09-12T05:35:06.274Z,12.89
2022-09-12T05:37:36.025Z,12.91
2022-09-12T05:40:07.603Z,12.92
2022-09-12T05:42:36.831Z,12.92
2022-09-12T05:45:06.019Z,12.96
2022-09-12T05:47:34.332Z,13.00
2022-09-12T05:50:02.843Z,13.03
2022-09-12T05:52:33.309Z,13.04
2022-09-12T05:55:03.335Z,13.05
2022-09-12T05:57:33.278Z,13.08
2022-09-12T06:00:04.610Z,13.10
2022-09-12T06:02:33.028Z,13.11
2022-09-12T06:05:01.855Z,13.12
2022-09-12T06:07:31.188Z,13.13
2022-09-12T06:09:59.827Z,13.15
2022-09-12T06:12:31.016Z,13.18
2022-09-12T06:14:59.337Z,13.24
2022-09-12T06:17:27.676Z,13.26
2022-09-12T06:19:56.961Z,13.31
2022-09-12T06:22:25.497Z,13.34
2022-09-12T06:24:57.771Z,13.39
2022-09-12T06:27:26.633Z,13.41
2022-09-12T06:29:56.782Z,13.41
2022-09-12T06:32:25.254Z,13.45
2022-09-12T06:34:53.620Z,13.47
2022-09-12T06:37:22.015Z,13.50
2022-09-12T06:39:50.392Z,13.52
2022-09-12T06:42:20.041Z,13.57
2022-09-12T06:44:48.544Z,13.61
2022-09-12T06:47:18.254Z,13.64
2022-09-12T06:49:47.595Z,13.68
2022-09-12T06:52:15.970Z,13.72
2022-09-12T06:54:44.303Z,13.75
2022-09-12T06:57:13.469Z,13.77
2022-09-12T06:59:42.436Z,13.81
2022-09-12T07:02:10.983Z,13.86
2022-09-12T07:04:40.670Z,13.89
2022-09-12T07:07:09.463Z,13.93
2022-09-12T07:09:37.832Z,13.99
2022-09-12T07:12:07.039Z,14.03
2022-09-12T07:14:35.479Z,14.10
2022-09-12T07:17:04.077Z,14.13
2022-09-12T07:19:32.678Z,14.18
2022-09-12T07:22:02.739Z,14.22
2022-09-12T07:24:31.097Z,14.30
2022-09-12T07:26:59.537Z,14.36
2022-09-12T07:29:43.127Z,14.45
2022-09-12T07:32:12.153Z,14.50
2022-09-12T07:34:40.481Z,14.56
2022-09-12T07:37:10.265Z,14.63
2022-09-12T07:39:38.896Z,14.68
2022-09-12T07:42:07.919Z,14.75
2022-09-12T07:44:36.312Z,14.83
2022-09-12T07:47:04.939Z,14.89
2022-09-12T07:49:33.275Z,14.95
2022-09-12T07:52:01.699Z,15.02
2022-09-12T07:54:33.204Z,15.08
2022-09-12T07:57:01.659Z,15.12
2022-09-12T07:59:51.540Z,15.22
2022-09-12T08:02:19.635Z,15.28
2022-09-12T08:04:49.376Z,15.32
2022-09-12T08:07:19.426Z,15.37
2022-09-12T08:09:49.502Z,15.42
2022-09-12T08:12:20.273Z,15.48
2022-09-12T08:14:48.591Z,15.57
2022-09-12T08:17:19.707Z,15.62
2022-09-12T08:19:48.301Z,15.68
2022-09-12T08:22:22.736Z,15.73
2022-09-12T08:24:52.730Z,15.81
2022-09-12T08:27:21.741Z,15.90
2022-09-12T08:29:50.127Z,15.97
2022-09-12T08:32:18.462Z,16.03
2022-09-12T08:34:48.265Z,16.11
2022-09-12T08:37:20.745Z,16.13
2022-09-12T08:39:49.117Z,16.21
2022-09-12T08:42:33.623Z,16.28
2022-09-12T08:45:20.697Z,16.37
2022-09-12T08:47:50.322Z,16.46
2022-09-12T08:50:20.766Z,16.58
2022-09-12T08:52:58.633Z,16.64
2022-09-12T08:55:32.249Z,16.72
2022-09-12T08:58:03.564Z,16.81
2022-09-12T09:00:41.311Z,16.87
2022-09-12T09:03:32.565Z,16.96
2022-09-12T09:06:08.432Z,17.04
2022-09-12T09:08:52.311Z,17.13
2022-09-12T09:11:37.581Z,17.22
2022-09-12T09:14:58.426Z,17.31
2022-09-12T09:17:33.489Z,17.38
2022-09-12T09:20:10.266Z,17.45
2022-09-12T09:22:44.649Z,17.52
2022-09-12T09:25:22.896Z,17.59
2022-09-12T09:27:59.681Z,17.65
2022-09-12T09:30:29.698Z,17.70
2022-09-12T09:33:00.818Z,17.76
2022-09-12T09:35:40.183Z,17.83
2022-09-12T09:38:24.704Z,17.87
2022-09-12T09:41:08.336Z,17.95
2022-09-12T09:43:38.726Z,18.02
2022-09-12T09:46:08.835Z,18.09
2022-09-12T09:48:39.171Z,18.17
2022-09-12T09:51:09.323Z,18.21
2022-09-12T09:53:45.173Z,18.26
2022-09-12T09:56:26.176Z,18.34
2022-09-12T09:58:54.587Z,18.42
2022-09-12T10:01:25.364Z,18.48
2022-09-12T10:03:55.639Z,18.50
2022-09-12T10:06:28.963Z,18.58
2022-09-12T10:09:09.007Z,18.67
2022-09-12T10:11:42.490Z,18.77
2022-09-12T10:14:39.022Z,18.86
2022-09-12T10:17:34.289Z,18.96
2022-09-12T10:20:21.033Z,19.08
2022-09-12T10:22:50.295Z,19.21
2022-09-12T10:25:21.182Z,19.31
2022-09-12T10:27:55.485Z,19.42
2022-09-12T10:30:25.894Z,19.54
2022-09-12T10:33:01.979Z,19.61
2022-09-12T10:35:33.515Z,19.68
2022-09-12T10:38:06.117Z,19.76
2022-09-12T10:40:40.091Z,19.86
2022-09-12T10:43:19.336Z,19.95
2022-09-12T10:45:47.756Z,19.99
2022-09-12T10:48:29.852Z,20.07
2022-09-12T10:50:58.928Z,20.20
2022-09-12T10:53:34.143Z,20.32
2022-09-12T10:56:10.428Z,20.37
2022-09-12T10:58:56.893Z,20.48
2022-09-12T11:01:37.550Z,20.61
2022-09-12T11:04:27.676Z,20.74
2022-09-12T11:07:21.157Z,20.85
2022-09-12T11:09:59.492Z,20.95
2022-09-12T11:12:37.302Z,21.00
2022-09-12T11:15:23.674Z,21.03
2022-09-12T11:18:00.381Z,21.11
2022-09-12T11:20:59.401Z,21.13
2022-09-12T11:23:45.731Z,21.15
2022-09-12T11:26:26.385Z,21.29
2022-09-12T11:29:05.408Z,21.39
2022-09-12T11:31:53.918Z,21.45
2022-09-12T11:34:33.525Z,21.44
2022-09-12T11:37:20.424Z,21.52
2022-09-12T11:39:55.688Z,21.66
2022-09-12T11:42:31.596Z,21.80
2022-09-12T11:45:09.085Z,21.90
2022-09-12T11:47:38.676Z,22.00
2022-09-12T11:50:20.234Z,22.06
2022-09-12T11:52:52.223Z,22.14
2022-09-12T11:55:26.288Z,22.21
2022-09-12T11:57:56.093Z,22.25
2022-09-12T12:00:28.680Z,22.29
2022-09-12T12:03:06.010Z,22.36
2022-09-12T12:05:43.326Z,22.50
2022-09-12T12:08:14.600Z,22.61
2022-09-12T12:10:45.002Z,22.68
2022-09-12T12:13:21.020Z,22.76
2022-09-12T12:15:53.495Z,22.82
2022-09-12T12:18:26.085Z,22.88
2022-09-12T12:20:56.346Z,22.96
2022-09-12T12:23:32.491Z,23.03
2022-09-12T12:26:04.522Z,23.15
2022-09-12T12:28:59.317Z,23.21
2022-09-12T12:31:27.930Z,23.25
2022-09-12T12:34:04.094Z,23.30
2022-09-12T12:36:40.336Z,23.30
2022-09-12T12:39:55.537Z,23.31
2022-09-12T12:43:04.536Z,23.33
2022-09-12T12:46:05.975Z,23.37
2022-09-12T12:48:52.479Z,23.42
2022-09-12T12:51:44.526Z,23.51
2022-09-12T12:54:32.828Z,23.63
2022-09-12T12:57:15.505Z,23.67
2022-09-12T12:59:50.101Z,23.70
2022-09-12T13:02:25.267Z,23.67
2022-09-12T13:04:55.434Z,23.66
2022-09-12T13:07:31.371Z,23.64
2022-09-12T13:10:02.421Z,23.68
2022-09-12T13:12:34.709Z,23.70
2022-09-12T13:15:04.848Z,23.72
2022-09-12T13:17:39.439Z,23.73
2022-09-12T13:20:34.585Z,23.71
2022-09-12T13:23:03.007Z,23.75
2022-09-12T13:25:32.527Z,23.83
2022-09-12T13:28:04.224Z,23.90
2022-09-12T13:30:34.872Z,23.98
2022-09-12T13:33:22.141Z,24.03
2022-09-12T13:36:25.029Z,24.08
2022-09-12T13:39:06.503Z,24.15
2022-09-12T13:41:53.296Z,24.22
2022-09-12T13:44:24.401Z,24.23
2022-09-12T13:46:53.655Z,24.21
2022-09-12T13:49:30.488Z,24.20
2022-09-12T13:52:01.638Z,24.26
2022-09-12T13:54:31.352Z,24.31
2022-09-12T13:56:59.989Z,24.32
2022-09-12T13:59:28.450Z,24.31
2022-09-12T14:01:57.067Z,24.30
2022-09-12T14:04:41.963Z,24.28
2022-09-12T14:07:18.916Z,24.29
2022-09-12T14:09:54.350Z,24.34
2022-09-12T14:12:26.869Z,24.39
2022-09-12T14:14:55.401Z,24.41
2022-09-12T14:17:29.431Z,24.41
2022-09-12T14:20:03.860Z,24.42
2022-09-12T14:22:34.192Z,24.43
2022-09-12T14:25:02.802Z,24.46
2022-09-12T14:27:38.090Z,24.51
2022-09-12T14:30:09.220Z,24.55
2022-09-12T14:32:37.755Z,24.58
2022-09-12T14:35:18.097Z,24.58
2022-09-12T14:37:49.325Z,24.56
2022-09-12T14:40:20.719Z,24.56
2022-09-12T14:42:51.132Z,24.58
2022-09-12T14:45:26.526Z,24.58
2022-09-12T14:47:55.570Z,24.56
2022-09-12T14:50:29.088Z,24.54
2022-09-12T14:53:08.115Z,24.51
2022-09-12T14:55:44.601Z,24.49
2022-09-12T14:58:17.790Z,24.46
2022-09-12T15:00:57.744Z,24.42
2022-09-12T15:03:30.149Z,24.36
2022-09-12T15:06:00.594Z,24.31
2022-09-12T15:08:28.941Z,24.26
2022-09-12T15:10:57.486Z,24.17
2022-09-12T15:13:28.020Z,24.08
2022-09-12T15:15:58.083Z,23.94
2022-09-12T15:18:28.279Z,23.84
2022-09-12T15:21:02.354Z,23.76
2022-09-12T15:23:35.792Z,23.74
2022-09-12T15:26:05.093Z,23.78
2022-09-12T15:28:34.508Z,23.78
2022-09-12T15:31:08.523Z,23.76
2022-09-12T15:33:36.954Z,23.77
2022-09-12T15:36:15.408Z,23.78
2022-09-12T15:38:44.758Z,23.77
2022-09-12T15:41:17.113Z,23.81
2022-09-12T15:43:45.901Z,23.80
2022-09-12T15:46:17.056Z,23.73
2022-09-12T15:48:45.539Z,23.67
2022-09-12T15:51:16.902Z,23.61
2022-09-12T15:53:45.800Z,23.58
2022-09-12T15:56:15.697Z,23.56
2022-09-12T15:58:57.672Z,23.58
2022-09-12T16:01:27.887Z,23.63
2022-09-12T16:03:56.316Z,23.65
2022-09-12T16:06:27.265Z,23.67
2022-09-12T16:08:55.583Z,23.68
2022-09-12T16:11:25.907Z,23.66
2022-09-12T16:13:55.708Z,23.62
2022-09-12T16:16:24.401Z,23.53
2022-09-12T16:18:52.855Z,23.49
2022-09-12T16:21:21.475Z,23.44
2022-09-12T16:23:51.711Z,23.39
2022-09-12T16:26:20.393Z,23.34
2022-09-12T16:28:48.962Z,23.29
2022-09-12T16:31:17.542Z,23.27
2022-09-12T16:33:45.878Z,23.24
2022-09-12T16:36:16.141Z,23.20
2022-09-12T16:38:45.628Z,23.14
2022-09-12T16:41:18.196Z,23.09
2022-09-12T16:43:46.858Z,23.03
2022-09-12T16:46:16.927Z,23.01
2022-09-12T16:48:51.595Z,22.96
2022-09-12T16:51:23.623Z,22.92
2022-09-12T16:53:51.958Z,22.87
2022-09-12T16:56:21.861Z,22.80
2022-09-12T16:58:50.635Z,22.75
2022-09-12T17:01:20.957Z,22.68
2022-09-12T17:03:49.903Z,22.58
2022-09-12T17:06:20.556Z,22.50
2022-09-12T17:08:50.526Z,22.41
2022-09-12T17:11:22.066Z,22.30
2022-09-12T17:14:07.426Z,22.21
2022-09-12T17:16:38.426Z,22.10
2022-09-12T17:19:08.001Z,22.00
2022-09-12T17:21:37.098Z,21.89
2022-09-12T17:24:06.068Z,21.77
2022-09-12T17:26:35.955Z,21.68
2022-09-12T17:29:04.703Z,21.60
2022-09-12T17:31:34.527Z,21.52
2022-09-12T17:34:04.497Z,21.40
2022-09-12T17:36:34.610Z,21.32
2022-09-12T17:39:05.217Z,21.25
2022-09-12T17:41:36.248Z,21.18
2022-09-12T17:44:07.382Z,21.10
2022-09-12T17:46:37.969Z,21.03
2022-09-12T17:49:09.304Z,20.97
2022-09-12T17:51:41.341Z,20.87
2022-09-12T17:54:12.323Z,20.75
2022-09-12T17:56:42.911Z,20.67
2022-09-12T17:59:15.985Z,20.51
2022-09-12T18:02:02.495Z,20.32
2022-09-12T18:04:32.535Z,20.15
2022-09-12T18:07:00.864Z,19.99
2022-09-12T18:09:30.508Z,19.95
2022-09-12T18:12:00.527Z,19.90
2022-09-12T18:14:29.119Z,19.88
2022-09-12T18:16:58.080Z,19.87
2022-09-12T18:19:27.197Z,19.79
2022-09-12T18:21:56.015Z,19.80
2022-09-12T18:24:25.116Z,19.74
2022-09-12T18:26:56.642Z,19.68
2022-09-12T18:29:28.015Z,19.62
2022-09-12T18:31:56.545Z,19.60
2022-09-12T18:34:24.896Z,19.61
2022-09-12T18:36:55.107Z,19.56
2022-09-12T18:39:27.452Z,19.48
2022-09-12T18:41:57.104Z,19.37
2022-09-12T18:44:26.884Z,19.22
2022-09-12T18:46:55.240Z,19.06
2022-09-12T18:49:23.862Z,18.91
2022-09-12T18:51:52.209Z,18.93
2022-09-12T18:54:20.778Z,19.01
2022-09-12T18:56:51.965Z,19.07
2022-09-12T18:59:21.020Z,19.01
2022-09-12T19:01:53.378Z,18.93
2022-09-12T19:04:22.442Z,18.96
2022-09-12T19:06:51.883Z,19.00
2022-09-12T19:09:21.775Z,19.02
2022-09-12T19:11:52.665Z,19.00
2022-09-12T19:14:24.935Z,18.94
2022-09-12T19:16:54.909Z,18.78
2022-09-12T19:19:23.437Z,18.61
2022-09-12T19:21:51.939Z,18.49
2022-09-12T19:24:21.910Z,18.51
2022-09-12T19:26:51.115Z,18.57
2022-09-12T19:29:19.836Z,18.58
2022-09-12T19:31:48.169Z,18.59
2022-09-12T19:34:18.796Z,18.50
2022-09-12T19:36:47.855Z,18.40
2022-09-12T19:39:17.803Z,18.35
2022-09-12T19:41:46.610Z,18.34
2022-09-12T19:44:15.364Z,18.23
2022-09-12T19:46:44.551Z,18.03
2022-09-12T19:49:13.780Z,17.93
2022-09-12T19:51:44.013Z,17.83
2022-09-12T19:54:12.761Z,17.76
2022-09-12T19:56:41.344Z,17.67
2022-09-12T19:59:09.989Z,17.63
2022-09-12T20:01:38.579Z,17.59
2022-09-12T20:04:07.660Z,17.56
2022-09-12T20:06:36.721Z,17.47
2022-09-12T20:09:06.762Z,17.44
2022-09-12T20:11:35.462Z,17.52
2022-09-12T20:14:04.248Z,17.61
2022-09-12T20:16:33.497Z,17.69
2022-09-12T20:19:06.128Z,17.70
2022-09-12T20:21:36.044Z,17.68
2022-09-12T20:24:07.711Z,17.63
2022-09-12T20:26:36.575Z,17.60
2022-09-12T20:29:07.255Z,17.57
2022-09-12T20:31:36.802Z,17.53
2022-09-12T20:34:05.713Z,17.46
2022-09-12T20:36:34.614Z,17.34
2022-09-12T20:39:03.328Z,17.28
2022-09-12T20:41:35.294Z,17.16
2022-09-12T20:44:04.235Z,17.11
2022-09-12T20:46:33.104Z,17.00
2022-09-12T20:49:02.652Z,16.92
2022-09-12T20:51:31.414Z,16.88
2022-09-12T20:54:03.260Z,16.79
2022-09-12T20:56:34.346Z,16.76
2022-09-12T20:59:02.794Z,16.73
2022-09-12T21:01:32.561Z,16.80
2022-09-12T21:04:01.782Z,16.89
2022-09-12T21:06:30.277Z,16.91
2022-09-12T21:09:00.558Z,16.89
2022-09-12T21:11:29.661Z,16.80
2022-09-12T21:13:59.651Z,16.73
2022-09-12T21:16:28.279Z,16.61
2022-09-12T21:18:58.480Z,16.49
2022-09-12T21:21:27.658Z,16.41
2022-09-12T21:23:59.644Z,16.36
2022-09-12T21:26:28.353Z,16.27
2022-09-12T21:28:56.989Z,16.20
2022-09-12T21:31:27.344Z,16.20
2022-09-12T21:33:55.730Z,16.06
2022-09-12T21:36:25.319Z,15.99
2022-09-12T21:38:53.663Z,15.92
2022-09-12T21:41:22.032Z,15.89
2022-09-12T21:43:50.711Z,15.86
2022-09-12T21:46:19.097Z,15.83
2022-09-12T21:48:48.927Z,15.83
2022-09-12T21:51:18.006Z,15.75
2022-09-12T21:53:46.370Z,15.64
2022-09-12T21:56:14.737Z,15.55
2022-09-12T21:58:43.123Z,15.59
2022-09-12T22:01:12.942Z,15.69
2022-09-12T22:03:43.067Z,15.74
2022-09-12T22:06:14.193Z,15.66
2022-09-12T22:08:43.031Z,15.56
2022-09-12T22:11:11.839Z,15.63
2022-09-12T22:13:42.812Z,15.63
2022-09-12T22:16:11.838Z,15.64
2022-09-12T22:18:40.371Z,15.55
2022-09-12T22:21:13.379Z,15.51
2022-09-12T22:24:00.619Z,15.47
2022-09-12T22:26:30.049Z,15.38
2022-09-12T22:28:58.398Z,15.39
2022-09-12T22:31:27.157Z,15.39
2022-09-12T22:33:56.996Z,15.36
2022-09-12T22:36:30.470Z,15.31
2022-09-12T22:39:01.698Z,15.34
2022-09-12T22:41:30.043Z,15.28
2022-09-12T22:43:59.444Z,15.29
2022-09-12T22:46:30.140Z,15.29
2022-09-12T22:48:58.607Z,15.34
2022-09-12T22:51:27.207Z,15.36
2022-09-12T22:53:56.455Z,15.40
2022-09-12T22:56:26.860Z,15.41
2022-09-12T22:58:55.416Z,15.45
2022-09-12T23:01:24.132Z,15.50
2022-09-12T23:03:52.692Z,15.54
2022-09-12T23:06:21.238Z,15.61
2022-09-12T23:08:49.609Z,15.64
2022-09-12T23:11:21.445Z,15.60
2022-09-12T23:13:52.276Z,15.55
2022-09-12T23:16:22.754Z,15.21
2022-09-12T23:18:51.919Z,14.96
2022-09-12T23:21:22.381Z,14.82
2022-09-12T23:23:51.381Z,14.73
2022-09-12T23:26:21.350Z,14.50
2022-09-12T23:28:53.410Z,14.52
2022-09-12T23:31:23.166Z,14.49
2022-09-12T23:33:54.047Z,14.58
2022-09-12T23:36:23.403Z,14.63
2022-09-12T23:38:52.100Z,14.70
2022-09-12T23:41:20.859Z,14.77
2022-09-12T23:43:49.167Z,14.67
2022-09-12T23:46:19.957Z,14.67
2022-09-12T23:48:49.099Z,14.70
2022-09-12T23:51:17.544Z,14.72
2022-09-12T23:53:46.031Z,14.64
2022-09-12T23:56:14.530Z,14.55
2022-09-12T23:58:42.897Z,14.47
